Time;durP1;ratioP1;P1;durP2;ratioP2;P2;SDS_P1;SDS_P2;PMS_P1;PMS_P2;Temp;Humidity;BMP_temperature;BMP_pressure;BME280_temperature;BME280_humidity;BME280_pressure;Samples;Min_cycle;Max_cycle;Signal;HPM_P1;HPM_P2
2021/12/03 00:01:25;;;;;;;4.88;4.32;;;5.00;99.90;;;;;;4993609;28;20406;-86
2021/12/03 00:03:54;;;;;;;6.25;5.20;;;5.00;99.90;;;;;;4993404;28;20232;-86
2021/12/03 00:06:22;;;;;;;4.40;3.88;;;4.90;99.90;;;;;;4993277;28;20276;-86
2021/12/03 00:08:51;;;;;;;4.07;3.75;;;4.90;99.90;;;;;;4992855;28;20307;-86
2021/12/03 00:11:21;;;;;;;4.28;3.88;;;4.90;99.90;;;;;;4992048;28;20295;-86
2021/12/03 00:13:49;;;;;;;4.68;3.60;;;4.90;99.90;;;;;;4993174;28;20227;-86
2021/12/03 00:16:18;;;;;;;4.07;3.45;;;4.90;99.90;;;;;;4992798;28;20298;-86
2021/12/03 00:18:46;;;;;;;6.82;4.50;;;4.90;99.90;;;;;;4991859;28;20238;-86
2021/12/03 00:21:15;;;;;;;3.10;2.90;;;4.90;99.90;;;;;;4993108;28;20295;-85
2021/12/03 00:23:43;;;;;;;3.70;3.40;;;4.90;99.90;;;;;;4992950;28;20228;-86
2021/12/03 00:26:11;;;;;;;3.40;3.10;;;4.90;99.90;;;;;;4992914;28;20292;-85
2021/12/03 00:28:41;;;;;;;3.28;2.97;;;4.90;99.90;;;;;;4992965;28;20315;-86
2021/12/03 00:31:10;;;;;;;4.32;3.92;;;4.90;99.90;;;;;;4992883;28;20200;-85
2021/12/03 00:33:40;;;;;;;3.30;3.00;;;4.90;99.90;;;;;;4992871;28;20299;-86
2021/12/03 00:36:10;;;;;;;3.92;3.25;;;4.90;99.90;;;;;;4992982;28;20291;-85
2021/12/03 00:38:42;;;;;;;4.03;3.15;;;4.80;99.90;;;;;;4992919;28;20235;-86
2021/12/03 00:41:14;;;;;;;4.00;3.60;;;4.80;99.90;;;;;;4997067;28;20196;-86
2021/12/03 00:43:46;;;;;;;4.80;2.65;;;4.80;99.90;;;;;;4997113;28;20323;-86
2021/12/03 00:46:17;;;;;;;3.58;3.28;;;4.70;99.90;;;;;;4997066;28;20208;-86
2021/12/03 00:48:47;;;;;;;3.25;2.75;;;4.70;99.90;;;;;;4996375;28;20224;-85
2021/12/03 00:51:16;;;;;;;3.42;3.13;;;4.70;99.90;;;;;;4997076;28;20243;-86
2021/12/03 00:53:45;;;;;;;2.42;2.28;;;4.60;99.90;;;;;;4997012;28;20203;-85
2021/12/03 00:56:15;;;;;;;3.72;3.08;;;4.60;99.90;;;;;;4996838;28;20203;-86
2021/12/03 00:58:45;;;;;;;3.65;3.25;;;4.60;99.90;;;;;;4996310;28;20231;-86
2021/12/03 01:01:15;;;;;;;3.08;2.78;;;4.50;99.90;;;;;;4996624;28;20298;-85
2021/12/03 01:03:44;;;;;;;2.72;2.45;;;4.50;99.90;;;;;;4996532;28;20239;-85
2021/12/03 01:06:12;;;;;;;3.03;2.78;;;4.50;99.90;;;;;;4996757;28;20275;-85
2021/12/03 01:08:41;;;;;;;4.88;3.08;;;4.50;99.90;;;;;;4996601;28;20231;-85
2021/12/03 01:11:12;;;;;;;4.00;3.28;;;4.50;99.90;;;;;;4996505;28;20214;-86
2021/12/03 01:13:42;;;;;;;3.10;2.80;;;4.50;99.90;;;;;;4996781;28;20219;-85
2021/12/03 01:16:13;;;;;;;2.80;2.60;;;4.50;99.90;;;;;;4996428;28;20299;-86
2021/12/03 01:18:42;;;;;;;2.80;2.58;;;4.50;99.90;;;;;;4995906;28;20231;-86
2021/12/03 01:21:11;;;;;;;5.47;3.35;;;4.50;99.90;;;;;;4996423;28;20204;-85
2021/12/03 01:23:39;;;;;;;4.43;3.03;;;4.40;99.90;;;;;;4995999;28;20332;-85
2021/12/03 01:26:08;;;;;;;4.50;3.35;;;4.50;99.90;;;;;;4996223;28;20212;-85
2021/12/03 01:28:36;;;;;;;4.22;3.22;;;4.50;99.90;;;;;;4996115;28;20319;-85
2021/12/03 01:31:04;;;;;;;3.25;2.95;;;4.50;99.90;;;;;;4995734;28;20235;-85
2021/12/03 01:33:35;;;;;;;3.38;3.08;;;4.40;99.90;;;;;;4996221;28;20228;-85
2021/12/03 01:36:04;;;;;;;3.45;3.15;;;4.50;99.90;;;;;;4996091;28;20207;-85
2021/12/03 01:38:32;;;;;;;2.92;2.40;;;4.50;99.90;;;;;;4995714;28;20319;-85
2021/12/03 01:41:01;;;;;;;5.28;3.05;;;4.50;99.90;;;;;;4995733;28;20280;-86
2021/12/03 01:43:29;;;;;;;2.88;2.67;;;4.50;99.90;;;;;;4995834;28;20207;-86
2021/12/03 01:46:00;;;;;;;3.05;2.72;;;4.50;99.90;;;;;;4995871;28;20239;-86
2021/12/03 01:48:29;;;;;;;3.85;2.83;;;4.50;99.90;;;;;;4995854;28;20288;-86
2021/12/03 01:51:00;;;;;;;7.65;2.85;;;4.50;99.90;;;;;;4994236;28;20200;-86
2021/12/03 01:53:33;;;;;;;2.65;2.45;;;4.50;99.90;;;;;;4996176;28;20296;-86
2021/12/03 01:56:05;;;;;;;3.70;3.25;;;4.50;99.90;;;;;;4995841;28;20220;-86
2021/12/03 01:58:34;;;;;;;3.88;3.22;;;4.50;99.90;;;;;;4995358;28;20255;-86
2021/12/03 02:01:06;;;;;;;2.97;2.75;;;4.50;99.90;;;;;;4995178;28;20303;-86
2021/12/03 02:03:39;;;;;;;4.07;3.33;;;4.50;99.90;;;;;;4995054;28;20207;-86
2021/12/03 02:06:11;;;;;;;3.47;3.08;;;4.50;99.90;;;;;;4996056;28;20268;-88
2021/12/03 02:08:40;;;;;;;3.63;3.15;;;4.40;99.90;;;;;;4994971;28;20288;-88
2021/12/03 02:11:11;;;;;;;3.55;3.22;;;4.50;99.90;;;;;;4994821;28;20200;-88
2021/12/03 02:13:40;;;;;;;5.22;3.75;;;4.50;99.90;;;;;;4995713;28;20219;-88
2021/12/03 02:16:09;;;;;;;3.30;2.97;;;4.40;99.90;;;;;;4995160;28;20291;-88
2021/12/03 02:18:38;;;;;;;3.90;3.15;;;4.40;99.90;;;;;;4994962;28;20235;-88
2021/12/03 02:21:10;;;;;;;3.42;3.10;;;4.40;99.90;;;;;;4995163;28;20212;-88
2021/12/03 02:23:40;;;;;;;4.75;3.67;;;4.40;99.90;;;;;;4995244;28;20212;-88
2021/12/03 02:26:09;;;;;;;3.58;3.28;;;4.40;99.90;;;;;;4995627;28;20231;-88
2021/12/03 02:28:41;;;;;;;2.92;2.63;;;4.30;99.90;;;;;;4995184;28;20307;-88
2021/12/03 02:31:09;;;;;;;3.67;3.00;;;4.30;99.90;;;;;;4995187;28;20238;-86
2021/12/03 02:33:38;;;;;;;3.25;2.72;;;4.30;99.90;;;;;;4995076;28;20208;-86
2021/12/03 02:36:09;;;;;;;2.97;2.72;;;4.30;99.90;;;;;;4994803;28;20298;-86
2021/12/03 02:38:37;;;;;;;3.10;2.80;;;4.30;99.90;;;;;;4994654;28;20319;-85
2021/12/03 02:41:06;;;;;;;5.40;2.40;;;4.30;99.90;;;;;;4994787;28;20211;-86
2021/12/03 02:43:34;;;;;;;3.10;2.60;;;4.20;99.90;;;;;;4995099;28;20280;-86
2021/12/03 02:46:03;;;;;;;3.65;2.88;;;4.20;99.90;;;;;;4994817;28;20207;-86
2021/12/03 02:48:35;;;;;;;5.22;3.47;;;4.20;99.90;;;;;;4994848;28;20220;-86
2021/12/03 02:51:05;;;;;;;4.55;2.95;;;4.10;99.90;;;;;;4994696;28;20216;-86
2021/12/03 02:53:36;;;;;;;3.20;2.47;;;4.10;99.90;;;;;;4994627;28;20228;-86
2021/12/03 02:56:06;;;;;;;5.50;3.22;;;4.10;99.90;;;;;;4994671;28;20219;-86
2021/12/03 02:58:34;;;;;;;1.90;1.80;;;4.20;99.90;;;;;;4994887;28;20247;-85
2021/12/03 03:01:07;;;;;;;2.83;2.50;;;4.20;99.90;;;;;;4993531;28;20266;-86
2021/12/03 03:03:35;;;;;;;2.55;2.35;;;4.20;99.90;;;;;;4993944;28;20307;-85
2021/12/03 03:06:06;;;;;;;3.30;2.25;;;4.20;99.90;;;;;;4994324;28;20224;-86
2021/12/03 03:08:39;;;;;;;2.70;2.40;;;4.20;99.90;;;;;;4994301;28;20224;-86
2021/12/03 03:11:08;;;;;;;2.40;2.20;;;4.20;99.90;;;;;;4993541;28;20231;-86
2021/12/03 03:13:37;;;;;;;3.38;2.33;;;4.20;99.90;;;;;;4994382;28;20294;-86
2021/12/03 03:16:07;;;;;;;2.42;2.28;;;4.20;99.90;;;;;;4994126;28;20203;-85
2021/12/03 03:18:36;;;;;;;1.88;1.67;;;4.20;99.90;;;;;;4994092;28;20231;-86
2021/12/03 03:21:07;;;;;;;2.10;1.90;;;4.10;99.90;;;;;;4994050;28;20295;-86
2021/12/03 03:23:37;;;;;;;2.03;1.92;;;4.10;99.90;;;;;;4993770;28;20235;-85
2021/12/03 03:26:06;;;;;;;2.30;2.10;;;4.00;99.90;;;;;;4994443;28;20290;-86
2021/12/03 03:28:35;;;;;;;3.72;1.92;;;4.10;99.90;;;;;;4993811;28;20243;-85
2021/12/03 03:31:04;;;;;;;13.98;2.45;;;4.10;99.90;;;;;;4993672;28;20215;-86
2021/12/03 03:33:33;;;;;;;1.80;1.70;;;4.00;99.90;;;;;;4993948;28;20235;-86
2021/12/03 03:36:02;;;;;;;1.83;1.73;;;4.00;99.90;;;;;;4994058;28;20208;-86
2021/12/03 03:38:30;;;;;;;1.88;1.75;;;4.00;99.90;;;;;;4993841;28;20251;-86
2021/12/03 03:41:00;;;;;;;3.92;2.30;;;4.00;99.90;;;;;;4992894;28;20294;-86
2021/12/03 03:43:28;;;;;;;2.05;1.77;;;4.00;99.90;;;;;;4994102;28;20286;-86
2021/12/03 03:45:57;;;;;;;4.13;2.75;;;4.00;99.90;;;;;;4993929;28;20291;-85
2021/12/03 03:48:25;;;;;;;2.25;2.05;;;4.00;99.90;;;;;;4993564;28;20258;-86
2021/12/03 03:50:54;;;;;;;5.80;2.53;;;4.00;99.90;;;;;;4993349;28;20238;-86
2021/12/03 03:53:24;;;;;;;2.33;2.13;;;3.90;99.90;;;;;;4993759;28;20311;-86
2021/12/03 03:55:53;;;;;;;2.83;2.60;;;3.90;99.90;;;;;;4993641;28;20271;-86
2021/12/03 03:58:22;;;;;;;2.60;2.28;;;3.90;99.90;;;;;;4993387;28;20255;-86
2021/12/03 04:00:53;;;;;;;3.17;2.60;;;3.90;99.90;;;;;;4993268;28;20231;-86
2021/12/03 04:03:21;;;;;;;3.60;2.47;;;3.90;99.90;;;;;;4993741;28;20216;-86
2021/12/03 04:05:50;;;;;;;4.25;2.40;;;3.90;99.90;;;;;;4993698;28;20216;-85
2021/12/03 04:08:21;;;;;;;2.90;2.33;;;3.90;99.90;;;;;;4993525;28;20239;-86
2021/12/03 04:10:51;;;;;;;3.13;2.92;;;3.90;99.90;;;;;;4992764;28;20242;-86
2021/12/03 04:13:19;;;;;;;2.45;2.25;;;3.80;99.90;;;;;;4992810;28;20303;-85
2021/12/03 04:15:49;;;;;;;2.53;2.33;;;3.90;99.90;;;;;;4992947;28;20211;-86
2021/12/03 04:18:18;;;;;;;6.90;2.63;;;3.90;99.90;;;;;;4993362;28;20274;-86
2021/12/03 04:20:47;;;;;;;6.17;2.37;;;3.90;99.90;;;;;;4992879;28;20274;-86
2021/12/03 04:23:19;;;;;;;1.70;1.60;;;3.90;99.90;;;;;;4993087;28;20211;-86
2021/12/03 04:25:47;;;;;;;2.55;2.35;;;3.80;99.90;;;;;;4992729;28;20280;-86
2021/12/03 04:28:16;;;;;;;2.50;2.25;;;3.80;99.90;;;;;;4993096;28;20310;-86
2021/12/03 04:30:46;;;;;;;1.73;1.40;;;3.70;99.90;;;;;;4992776;28;20227;-85
2021/12/03 04:33:17;;;;;;;2.92;2.17;;;3.60;99.90;;;;;;4992926;28;20223;-86
2021/12/03 04:35:46;;;;;;;5.35;2.90;;;3.60;99.90;;;;;;4993012;28;20216;-86
2021/12/03 04:38:14;;;;;;;3.13;2.38;;;3.60;99.90;;;;;;4992833;28;20238;-86
2021/12/03 04:40:43;;;;;;;2.35;2.08;;;3.50;99.90;;;;;;4992275;28;20302;-86
2021/12/03 04:43:12;;;;;;;1.85;1.75;;;3.50;99.90;;;;;;4993356;28;20302;-86
2021/12/03 04:45:41;;;;;;;2.05;1.85;;;3.50;99.90;;;;;;4993111;28;20288;-86
2021/12/03 04:48:09;;;;;;;2.78;1.67;;;3.40;99.90;;;;;;4992596;28;20282;-85
2021/12/03 04:50:42;;;;;;;3.55;2.22;;;3.40;99.90;;;;;;4992496;28;20290;-86
2021/12/03 04:53:11;;;;;;;3.40;1.83;;;3.30;99.90;;;;;;4992654;28;20238;-86
2021/12/03 04:55:40;;;;;;;1.77;1.67;;;3.30;99.90;;;;;;4993094;28;20284;-85
2021/12/03 04:58:08;;;;;;;2.28;2.03;;;3.30;99.90;;;;;;4992632;28;20309;-86
2021/12/03 05:00:39;;;;;;;2.78;2.50;;;3.20;99.90;;;;;;4992097;28;20314;-86
2021/12/03 05:03:08;;;;;;;3.25;1.77;;;3.20;99.90;;;;;;4992789;28;20295;-86
2021/12/03 05:05:44;;;;;;;2.22;1.80;;;3.10;99.90;;;;;;4992348;28;20199;-85
2021/12/03 05:08:12;;;;;;;3.43;2.50;;;3.10;99.90;;;;;;4992608;28;20254;-86
2021/12/03 05:10:44;;;;;;;4.22;2.10;;;3.10;99.90;;;;;;4992774;28;20286;-85
2021/12/03 05:13:15;;;;;;;2.35;2.15;;;3.10;99.90;;;;;;4991908;28;20216;-85
2021/12/03 05:15:44;;;;;;;2.00;1.75;;;3.10;99.90;;;;;;4993123;28;20227;-85
2021/12/03 05:18:15;;;;;;;2.30;2.10;;;3.00;99.90;;;;;;4992424;28;20298;-85
2021/12/03 05:20:48;;;;;;;3.65;2.47;;;3.10;99.90;;;;;;4991876;28;20224;-85
2021/12/03 05:23:17;;;;;;;6.65;3.25;;;3.10;99.90;;;;;;4992554;28;20208;-85
2021/12/03 05:25:46;;;;;;;4.00;2.50;;;3.00;99.90;;;;;;4994484;28;20265;-85
2021/12/03 05:28:15;;;;;;;3.63;2.50;;;3.00;99.90;;;;;;4996033;28;20254;-85
2021/12/03 05:30:49;;;;;;;2.42;2.22;;;3.00;99.90;;;;;;4995651;28;20286;-85
2021/12/03 05:33:19;;;;;;;2.13;2.00;;;3.00;99.90;;;;;;4996117;28;20303;-85
2021/12/03 05:35:49;;;;;;;5.80;2.38;;;3.00;99.90;;;;;;4996324;28;20235;-86
2021/12/03 05:38:18;;;;;;;2.33;2.13;;;3.00;99.90;;;;;;4996044;28;20238;-85
2021/12/03 05:40:47;;;;;;;3.15;2.45;;;3.00;99.90;;;;;;4995475;28;20334;-85
2021/12/03 05:43:18;;;;;;;2.60;2.17;;;3.00;99.90;;;;;;4996134;28;20243;-85
2021/12/03 05:45:47;;;;;;;3.58;2.53;;;2.90;99.90;;;;;;4996025;28;20207;-85
2021/12/03 05:48:16;;;;;;;2.80;2.47;;;2.90;99.90;;;;;;4995902;28;20263;-85
2021/12/03 05:50:45;;;;;;;2.53;2.13;;;3.00;99.90;;;;;;4995265;28;20204;-85
2021/12/03 05:53:15;;;;;;;2.37;2.10;;;3.00;99.90;;;;;;4995993;28;20219;-85
2021/12/03 05:55:43;;;;;;;2.70;2.50;;;3.00;99.90;;;;;;4995810;28;20207;-85
2021/12/03 05:58:12;;;;;;;3.77;2.47;;;3.00;99.90;;;;;;4995543;28;20255;-85
2021/12/03 06:00:42;;;;;;;2.42;2.22;;;3.00;99.90;;;;;;4995081;28;20251;-85
2021/12/03 06:03:11;;;;;;;2.83;2.50;;;3.10;99.90;;;;;;4996165;28;20199;-85
2021/12/03 06:05:40;;;;;;;2.33;2.15;;;3.10;99.90;;;;;;4995413;28;20215;-85
2021/12/03 06:08:09;;;;;;;2.72;2.33;;;3.10;99.90;;;;;;4995391;28;20228;-85
2021/12/03 06:10:39;;;;;;;3.07;2.80;;;3.20;99.90;;;;;;4995075;28;20204;-85
2021/12/03 06:13:07;;;;;;;2.37;2.17;;;3.20;99.90;;;;;;4994386;28;20246;-85
2021/12/03 06:15:35;;;;;;;2.57;2.40;;;3.20;99.90;;;;;;4995765;28;20258;-85
2021/12/03 06:18:05;;;;;;;3.42;2.72;;;3.20;99.90;;;;;;4995400;28;20236;-85
2021/12/03 06:20:33;;;;;;;7.00;2.60;;;3.10;99.90;;;;;;4994692;28;20343;-85
2021/12/03 06:23:01;;;;;;;3.00;2.70;;;3.10;99.90;;;;;;4995423;28;20268;-86
2021/12/03 06:25:30;;;;;;;10.27;3.13;;;3.10;99.90;;;;;;4995164;28;20262;-85
2021/12/03 06:27:59;;;;;;;3.33;3.03;;;3.10;99.90;;;;;;4995195;28;20244;-86
2021/12/03 06:30:28;;;;;;;5.00;2.63;;;3.10;99.90;;;;;;4994891;28;20257;-86
2021/12/03 06:32:57;;;;;;;4.15;3.38;;;3.10;99.90;;;;;;4995228;28;20303;-86
2021/12/03 06:35:25;;;;;;;2.55;2.35;;;3.20;99.90;;;;;;4994913;28;20235;-85
2021/12/03 06:37:54;;;;;;;2.83;2.60;;;3.20;99.90;;;;;;4994354;28;20230;-86
2021/12/03 06:40:25;;;;;;;3.17;2.78;;;3.20;99.90;;;;;;4994572;28;20238;-86
2021/12/03 06:42:54;;;;;;;4.22;3.03;;;3.20;99.90;;;;;;4995058;28;20211;-86
2021/12/03 06:45:25;;;;;;;3.72;3.05;;;3.20;99.90;;;;;;4995023;28;20204;-85
2021/12/03 06:47:53;;;;;;;3.55;3.25;;;3.20;99.90;;;;;;4994793;28;20231;-85
2021/12/03 06:50:23;;;;;;;3.73;2.80;;;3.20;99.90;;;;;;4994263;28;20291;-85
2021/12/03 06:52:56;;;;;;;3.35;3.05;;;3.20;99.90;;;;;;4995158;28;20216;-85
2021/12/03 06:55:25;;;;;;;6.75;3.70;;;3.20;99.90;;;;;;4994937;28;20227;-85
2021/12/03 06:57:53;;;;;;;3.43;3.00;;;3.20;99.90;;;;;;4994437;28;20300;-86
2021/12/03 07:00:23;;;;;;;4.28;3.22;;;3.20;99.90;;;;;;4994529;28;20311;-85
2021/12/03 07:02:52;;;;;;;3.17;2.88;;;3.10;99.90;;;;;;4995297;28;20294;-85
2021/12/03 07:05:21;;;;;;;2.93;2.67;;;3.10;99.90;;;;;;4995513;28;20207;-85
2021/12/03 07:07:50;;;;;;;2.50;2.30;;;3.10;99.90;;;;;;4994627;28;20264;-86
2021/12/03 07:10:21;;;;;;;2.70;2.50;;;3.10;99.90;;;;;;4994493;28;20235;-85
2021/12/03 07:12:50;;;;;;;3.95;3.20;;;3.10;99.90;;;;;;4994880;28;20239;-85
2021/12/03 07:15:19;;;;;;;2.47;2.27;;;3.20;99.90;;;;;;4994346;28;20214;-85
2021/12/03 07:17:50;;;;;;;2.87;2.60;;;3.10;99.90;;;;;;4995356;28;20232;-86
2021/12/03 07:20:22;;;;;;;2.65;2.45;;;3.20;99.90;;;;;;4994217;28;20215;-86
2021/12/03 07:22:50;;;;;;;3.27;2.60;;;3.20;99.90;;;;;;4994042;28;20269;-85
2021/12/03 07:25:19;;;;;;;2.42;2.25;;;3.30;99.90;;;;;;4994204;28;20294;-85
2021/12/03 07:27:48;;;;;;;3.15;2.88;;;3.30;99.90;;;;;;4995828;28;20286;-85
2021/12/03 07:30:19;;;;;;;3.40;2.97;;;3.40;99.90;;;;;;4993422;28;20304;-85
2021/12/03 07:32:48;;;;;;;4.47;3.97;;;3.40;99.90;;;;;;4994646;28;20230;-85
2021/12/03 07:35:17;;;;;;;3.28;2.97;;;3.40;99.90;;;;;;4993919;28;20208;-85
2021/12/03 07:37:47;;;;;;;3.53;3.22;;;3.30;99.90;;;;;;4993818;28;20325;-85
2021/12/03 07:40:16;;;;;;;4.60;2.90;;;3.30;99.90;;;;;;4993209;28;20208;-85
2021/12/03 07:42:44;;;;;;;4.23;3.37;;;3.40;99.90;;;;;;4993646;28;20318;-85
2021/12/03 07:45:16;;;;;;;2.92;2.63;;;3.30;99.90;;;;;;4994052;28;20262;-86
2021/12/03 07:47:45;;;;;;;9.10;4.25;;;3.40;99.90;;;;;;4994056;28;20234;-86
2021/12/03 07:50:14;;;;;;;3.55;3.15;;;3.40;99.90;;;;;;4992561;28;20239;-86
2021/12/03 07:52:43;;;;;;;3.45;2.40;;;3.40;99.90;;;;;;4994069;28;20199;-86
2021/12/03 07:55:12;;;;;;;2.97;2.65;;;3.50;99.90;;;;;;4994264;28;20227;-86
2021/12/03 07:57:48;;;;;;;3.83;3.53;;;3.40;99.90;;;;;;4994342;28;20243;-86
2021/12/03 08:00:17;;;;;;;4.95;3.53;;;3.40;99.90;;;;;;4993925;28;20270;-86
2021/12/03 08:02:58;;;;;;;3.67;3.37;;;3.40;99.90;;;;;;4993689;28;20219;-86
2021/12/03 08:05:26;;;;;;;3.72;3.42;;;3.40;99.90;;;;;;4993099;28;20267;-86
2021/12/03 08:07:55;;;;;;;4.93;3.83;;;3.40;99.90;;;;;;4994056;28;20223;-86
2021/12/03 08:10:25;;;;;;;4.27;3.83;;;3.40;99.90;;;;;;4993008;28;20287;-86
2021/12/03 08:12:54;;;;;;;4.43;3.78;;;3.50;99.90;;;;;;4992486;28;20234;-85
2021/12/03 08:15:23;;;;;;;6.30;4.33;;;3.60;99.90;;;;;;4993791;28;20199;-85
2021/12/03 08:17:51;;;;;;;7.28;4.18;;;3.60;99.90;;;;;;4993321;28;20315;-85
2021/12/03 08:20:20;;;;;;;4.47;3.63;;;3.60;99.90;;;;;;4993202;28;20216;-85
2021/12/03 08:22:54;;;;;;;6.05;3.90;;;3.70;99.90;;;;;;4993558;28;20223;-85
2021/12/03 08:25:26;;;;;;;3.83;3.50;;;3.60;99.90;;;;;;4993985;28;20235;-85
2021/12/03 08:27:54;;;;;;;10.13;4.20;;;3.60;99.90;;;;;;4993916;28;20258;-85
2021/12/03 08:30:27;;;;;;;4.30;3.90;;;3.70;99.90;;;;;;4993489;28;20222;-87
2021/12/03 08:32:55;;;;;;;4.25;3.75;;;3.60;99.90;;;;;;4995931;28;20282;-85
2021/12/03 08:35:24;;;;;;;4.50;3.97;;;3.60;99.90;;;;;;4993533;28;20242;-86
2021/12/03 08:37:53;;;;;;;4.35;3.95;;;3.60;99.90;;;;;;4993265;28;20232;-86
2021/12/03 08:40:23;;;;;;;4.28;3.95;;;3.50;99.90;;;;;;4992486;28;20211;-85
2021/12/03 08:42:53;;;;;;;4.13;3.75;;;3.60;99.90;;;;;;4993663;28;20231;-85
2021/12/03 08:45:21;;;;;;;4.22;3.90;;;3.60;99.90;;;;;;4994065;28;20347;-85
2021/12/03 08:47:54;;;;;;;4.90;3.80;;;3.70;99.90;;;;;;4994100;28;20228;-85
2021/12/03 08:50:29;;;;;;;3.63;3.33;;;3.70;99.90;;;;;;4992896;28;20205;-85
2021/12/03 08:53:15;;;;;;;4.75;4.32;;;3.70;99.90;;;;;;4994464;28;20211;-86
2021/12/03 08:55:44;;;;;;;3.85;3.55;;;3.70;99.90;;;;;;4994508;28;20227;-87
2021/12/03 08:58:16;;;;;;;3.70;3.40;;;3.70;99.90;;;;;;4993772;28;20323;-85
2021/12/03 09:00:45;;;;;;;5.73;4.40;;;3.70;99.90;;;;;;4994774;28;20254;-85
2021/12/03 09:03:14;;;;;;;4.90;4.40;;;3.70;99.90;;;;;;4999378;28;20283;-85
2021/12/03 09:05:44;;;;;;;7.97;5.55;;;3.70;99.90;;;;;;4997144;28;20208;-85
2021/12/03 09:08:12;;;;;;;3.50;3.20;;;3.70;99.90;;;;;;4997160;28;20223;-85
2021/12/03 09:10:41;;;;;;;5.73;3.93;;;3.70;99.90;;;;;;4996222;28;20292;-85
2021/12/03 09:13:10;;;;;;;3.83;3.53;;;3.70;99.90;;;;;;4995505;28;20230;-86
2021/12/03 09:15:43;;;;;;;3.80;3.47;;;3.70;99.90;;;;;;4997294;28;20214;-85
2021/12/03 09:18:27;;;;;;;3.70;3.30;;;3.80;99.90;;;;;;4997055;28;20250;-85
2021/12/03 09:21:18;;;;;;;2.97;2.78;;;3.80;99.90;;;;;;4997715;28;20199;-85
2021/12/03 09:26:29;;;;;;;3.58;3.28;;;3.90;99.90;;;;;;4995517;28;20214;-85
2021/12/03 09:29:03;;;;;;;2.92;2.72;;;3.80;99.90;;;;;;4996535;28;20227;-85
2021/12/03 09:31:35;;;;;;;2.58;2.38;;;3.90;99.90;;;;;;4996646;28;20203;-85
2021/12/03 09:34:08;;;;;;;2.45;2.25;;;3.90;99.90;;;;;;4996605;28;20235;-85
2021/12/03 09:36:40;;;;;;;2.67;2.47;;;3.90;99.90;;;;;;4997102;28;20216;-85
2021/12/03 09:39:13;;;;;;;2.95;2.65;;;3.80;99.90;;;;;;4996671;28;20250;-85
2021/12/03 09:41:42;;;;;;;4.05;2.65;;;3.80;99.90;;;;;;4996854;28;20235;-85
2021/12/03 09:44:11;;;;;;;2.35;2.15;;;3.80;99.90;;;;;;4995868;28;20282;-85
2021/12/03 09:46:41;;;;;;;5.07;3.33;;;3.80;99.90;;;;;;4996732;28;20299;-85
2021/12/03 09:52:08;;;;;;;2.92;2.72;;;3.90;99.90;;;;;;4996031;28;20295;-85
2021/12/03 09:54:40;;;;;;;5.63;3.07;;;3.90;99.90;;;;;;4995827;28;20298;-85
2021/12/03 09:57:12;;;;;;;4.07;3.67;;;3.90;99.90;;;;;;4996859;28;20313;-85
2021/12/03 10:00:06;;;;;;;5.97;4.95;;;3.90;99.90;;;;;;4995814;28;20273;-86
2021/12/03 10:03:07;;;;;;;3.65;3.33;;;4.00;99.90;;;;;;4995804;28;20267;-85
2021/12/03 10:20:17;;;;;;;4.88;4.45;;;5.00;99.90;;;;;;4998474;28;20204;-87
2021/12/03 10:32:05;;;;;;;4.32;3.95;;;6.20;99.90;;;;;;4996417;28;20211;-88
2021/12/03 10:49:25;;;;;;;4.03;3.63;;;5.70;99.90;;;;;;4965084;28;20299;-87
2021/12/03 10:52:02;;;;;;;3.47;3.17;;;5.80;99.90;;;;;;4977886;28;20283;-85
2021/12/03 11:35:10;;;;;;;3.90;3.40;;;6.40;99.90;;;;;;4973862;28;20211;-86
2021/12/03 12:25:18;;;;;;;3.10;2.85;;;6.20;99.90;;;;;;4950253;28;20228;-86
2021/12/03 14:02:47;;;;;;;3.22;2.92;;;5.40;99.90;;;;;;5093782;28;20242;-87
2021/12/03 14:05:50;;;;;;;3.55;3.22;;;5.50;99.90;;;;;;5109665;28;20216;-89
2021/12/03 14:37:33;;;;;;;3.40;3.10;;;4.80;99.90;;;;;;5109053;28;20259;-88
2021/12/03 14:40:16;;;;;;;3.05;2.85;;;4.80;99.90;;;;;;5108536;28;20199;-88
2021/12/03 14:42:57;;;;;;;2.70;2.55;;;4.70;99.90;;;;;;5095390;28;20273;-86
2021/12/03 14:45:45;;;;;;;5.18;2.80;;;4.70;99.90;;;;;;5095225;28;20242;-86
2021/12/03 14:48:38;;;;;;;3.67;3.38;;;4.70;99.90;;;;;;5095456;28;20229;-86
2021/12/03 14:51:21;;;;;;;2.83;2.63;;;4.60;99.90;;;;;;5094695;28;20307;-86
2021/12/03 14:57:13;;;;;;;5.30;2.83;;;4.50;99.90;;;;;;5064098;28;20239;-86
2021/12/03 14:59:52;;;;;;;3.53;3.08;;;4.50;99.90;;;;;;5094686;28;20231;-86
2021/12/03 15:02:35;;;;;;;2.88;2.67;;;4.50;99.90;;;;;;5095462;28;20224;-86
2021/12/03 15:05:16;;;;;;;2.45;2.25;;;4.40;99.90;;;;;;5095088;28;20211;-86
2021/12/03 15:07:46;;;;;;;3.17;2.88;;;4.40;99.90;;;;;;5094870;28;20244;-86
2021/12/03 15:10:22;;;;;;;2.83;2.58;;;4.30;99.90;;;;;;5094552;28;20244;-86
2021/12/03 15:13:16;;;;;;;3.33;3.03;;;4.20;99.90;;;;;;5094069;28;20291;-86
2021/12/03 15:27:08;;;;;;;3.30;3.00;;;4.00;99.90;;;;;;5094942;28;20208;-87
2021/12/03 15:32:37;;;;;;;2.78;2.58;;;3.90;99.90;;;;;;5094533;28;20200;-86
2021/12/03 15:35:10;;;;;;;2.70;2.50;;;3.80;99.90;;;;;;5094688;28;20283;-86
2021/12/03 15:40:39;;;;;;;2.63;2.42;;;3.70;99.90;;;;;;5080860;28;20216;-86
2021/12/03 16:06:16;;;;;;;3.30;3.00;;;3.30;99.90;;;;;;5093797;28;20287;-86
2021/12/03 16:08:47;;;;;;;7.20;3.28;;;3.30;99.90;;;;;;5093192;28;20298;-86
2021/12/03 16:14:18;;;;;;;3.93;3.37;;;3.20;99.90;;;;;;5093924;28;20212;-86
2021/12/03 16:17:05;;;;;;;2.95;2.75;;;3.10;99.90;;;;;;5093060;28;20264;-86
2021/12/03 16:44:45;;;;;;;5.77;3.93;;;2.90;99.90;;;;;;5093117;28;20292;-86
2021/12/03 16:47:26;;;;;;;5.17;3.87;;;2.90;99.90;;;;;;5092927;28;20236;-86
2021/12/03 16:52:44;;;;;;;3.17;2.97;;;2.80;99.90;;;;;;5092227;28;20359;-86
2021/12/03 16:55:16;;;;;;;7.47;4.10;;;2.80;99.90;;;;;;5093018;28;20238;-86
2021/12/03 16:57:47;;;;;;;5.13;4.63;;;2.70;99.90;;;;;;5092879;28;20246;-86
2021/12/03 17:00:22;;;;;;;3.47;3.17;;;2.80;99.90;;;;;;5092532;28;20209;-85
2021/12/03 17:02:55;;;;;;;5.10;4.23;;;2.70;99.90;;;;;;5092860;28;20265;-85
2021/12/03 17:05:37;;;;;;;4.17;3.77;;;2.60;99.90;;;;;;5092216;28;20258;-86
2021/12/03 17:47:50;;;;;;;3.90;3.57;;;2.30;99.90;;;;;;5130277;27;20269;-86
2021/12/03 17:50:43;;;;;;;3.70;3.40;;;2.30;99.90;;;;;;5129781;28;20202;-86
2021/12/03 17:58:47;;;;;;;5.17;4.07;;;2.40;99.90;;;;;;5125995;27;20269;-86
2021/12/03 18:01:20;;;;;;;3.70;3.40;;;2.30;99.90;;;;;;5130523;28;20282;-86
2021/12/03 18:03:54;;;;;;;8.07;5.33;;;2.30;99.90;;;;;;5130342;28;20212;-86
2021/12/03 18:09:33;;;;;;;4.60;4.20;;;2.30;99.90;;;;;;5129591;28;20278;-86
2021/12/03 18:48:39;;;;;;;5.37;4.77;;;2.20;99.90;;;;;;5115637;28;20311;-86
2021/12/03 18:51:21;;;;;;;4.97;4.40;;;2.20;99.90;;;;;;5115747;28;20220;-86
2021/12/03 18:54:01;;;;;;;5.77;4.57;;;2.20;99.90;;;;;;5115560;28;20207;-86
2021/12/03 18:56:37;;;;;;;6.67;5.10;;;2.20;99.90;;;;;;5115501;28;20203;-86
2021/12/03 18:59:08;;;;;;;4.30;3.87;;;2.20;99.90;;;;;;5114848;28;20208;-86
2021/12/03 19:01:37;;;;;;;4.27;3.90;;;2.20;99.90;;;;;;5115663;28;20200;-86
2021/12/03 19:07:03;;;;;;;5.07;3.73;;;2.10;99.90;;;;;;5111910;28;20220;-86
2021/12/03 19:09:36;;;;;;;6.90;5.10;;;2.10;99.90;;;;;;5114397;28;20238;-86
2021/12/03 19:12:08;;;;;;;7.03;6.15;;;2.10;99.90;;;;;;5115346;28;20207;-86
2021/12/03 19:14:38;;;;;;;5.53;5.03;;;2.10;99.90;;;;;;5115037;28;20217;-85
2021/12/03 19:17:08;;;;;;;5.50;4.90;;;2.00;99.90;;;;;;5114959;28;20224;-85
2021/12/03 19:19:41;;;;;;;6.30;5.07;;;2.00;99.90;;;;;;5114713;28;20291;-85
2021/12/03 19:22:12;;;;;;;5.63;5.10;;;2.00;99.90;;;;;;5115253;28;20200;-85
2021/12/03 19:24:40;;;;;;;5.03;4.53;;;2.00;99.90;;;;;;5115159;28;20204;-86
2021/12/03 19:27:10;;;;;;;6.07;5.23;;;1.90;99.90;;;;;;5114463;28;20242;-86
2021/12/03 19:29:42;;;;;;;5.40;4.90;;;2.00;99.90;;;;;;5114345;28;20230;-86
2021/12/03 19:32:11;;;;;;;4.83;4.03;;;1.90;99.90;;;;;;5114759;28;20290;-85
2021/12/03 19:34:39;;;;;;;4.10;3.70;;;2.00;99.90;;;;;;5115141;28;20290;-85
2021/12/03 19:37:08;;;;;;;5.73;4.60;;;2.00;99.90;;;;;;5114670;28;20275;-85
2021/12/03 19:39:39;;;;;;;3.63;3.30;;;2.00;99.90;;;;;;5114243;28;20283;-86
2021/12/03 19:42:11;;;;;;;8.77;4.87;;;1.90;99.90;;;;;;5114948;28;20226;-86
2021/12/03 19:44:44;;;;;;;4.03;3.73;;;2.00;99.90;;;;;;5114082;28;20234;-86
2021/12/03 19:47:13;;;;;;;4.80;4.37;;;1.90;99.90;;;;;;5114042;28;20292;-86
2021/12/03 19:49:49;;;;;;;5.53;5.03;;;1.90;99.90;;;;;;5113096;28;20250;-85
2021/12/03 19:52:25;;;;;;;5.23;4.73;;;1.90;99.90;;;;;;5114831;28;20231;-86
2021/12/03 19:54:56;;;;;;;6.57;5.97;;;1.90;99.90;;;;;;5114624;28;20234;-86
2021/12/03 19:57:25;;;;;;;4.73;4.33;;;1.90;99.90;;;;;;5114177;28;20241;-85
2021/12/03 19:59:54;;;;;;;4.73;4.33;;;1.90;99.90;;;;;;5114170;28;20298;-86
2021/12/03 20:02:22;;;;;;;6.57;5.60;;;1.90;99.90;;;;;;5114218;28;20287;-85
2021/12/03 20:04:50;;;;;;;5.40;4.90;;;1.90;99.90;;;;;;5114316;28;20211;-86
2021/12/03 20:07:19;;;;;;;6.73;5.63;;;1.90;99.90;;;;;;5114254;28;20248;-85
2021/12/03 20:09:56;;;;;;;4.87;4.47;;;1.90;99.90;;;;;;5113224;28;20234;-86
2021/12/03 20:12:29;;;;;;;5.50;4.77;;;1.80;99.90;;;;;;5112847;28;20207;-86
2021/12/03 20:14:58;;;;;;;8.37;5.97;;;1.90;99.90;;;;;;5114080;28;20286;-85
2021/12/03 20:17:29;;;;;;;6.70;5.97;;;1.80;99.90;;;;;;5114395;28;20246;-86